TW-0023 weather

Taipei City Hall Helipad
Taipei, Taipei (municipality), Taiwan

Public forecast

Using degrees Celsius for public forecast. Weather courtesy of forecast.io.

Closest aviation weather report (METAR) to Taipei City Hall Helipad

Closest report is Taipei Songshan Airport, 2.0 nm (3.8 km) NNW. Retrieved 2019/10/21 01:30 UTC (26 minutes ago):

RCSS 210130Z 08004KT 360V120 9999 FEW020 SCT040 BKN080 25/17 Q1015 NOSIG RMK A3000

Closest aviation forecast (TAF) to Taipei City Hall Helipad

Closest forecast is Taipei Songshan Airport, 2.0 nm (3.8 km) NNW. Retrieved 2019-10-21 00:00 UTC (2 hours ago):

TAF RCSS 202300Z 2100/2124 09007KT 9999 FEW015 BKN032 BKN060 TEMPO 2120/2124 VRB03KT FEW012 BKN022 BKN050